Hermitage, Tennessee
Current Conditions -  °F | °C
As of 10:53 AM on Thursday 27 Nov 2014 (Local Time) from KBNA Reporting Station
Overcast Overcast  
Wind Chill: 30°   Ceiling: 2700
Heat Index: 38°   Visibility: 10mi
Dew Point: 26°   Wind: 12mph
Humidity: 62%   Direction: 320°NW
Pressure: 30.41"   Gusts: 21mph
Location:  36.2°N, 86.62°W
Report Text: KBNA 271653Z 32010G18KT 10SM BKN027 OVC033 03/M03 A3041 RMK AO2 SLP302 T00331033
Loading
Personal Weather Stations






























Interactive Weather Map New forecast layout! Learn more

10-Day Weather Forecast

Advertisements
Track Severe Weather on mobile